sensor_id;sensor_type;location;lat;lon;timestamp;pressure;altitude;pressure_sealevel;temperature;humidity
80798;BME280;70202;52.238;10.680;2023-08-06T00:00:37;99420.06;;;17.34;78.34
80798;BME280;70202;52.238;10.680;2023-08-06T00:01:38;99410.31;;;17.30;78.24
80798;BME280;70202;52.238;10.680;2023-08-06T00:02:38;99432.47;;;17.40;78.27
80798;BME280;70202;52.238;10.680;2023-08-06T00:03:38;99418.94;;;17.37;78.46
80798;BME280;70202;52.238;10.680;2023-08-06T00:04:39;99416.06;;;17.38;78.36
80798;BME280;70202;52.238;10.680;2023-08-06T00:05:42;99401.03;;;17.31;78.23
80798;BME280;70202;52.238;10.680;2023-08-06T00:06:43;99388.78;;;17.24;78.23
80798;BME280;70202;52.238;10.680;2023-08-06T00:07:44;99394.03;;;17.27;78.08
80798;BME280;70202;52.238;10.680;2023-08-06T00:08:45;99380.03;;;17.19;78.53
80798;BME280;70202;52.238;10.680;2023-08-06T00:09:45;99395.78;;;17.28;78.54
80798;BME280;70202;52.238;10.680;2023-08-06T00:10:47;99387.78;;;17.25;78.55
80798;BME280;70202;52.238;10.680;2023-08-06T00:11:48;99392.16;;;17.28;78.12
80798;BME280;70202;52.238;10.680;2023-08-06T00:12:49;99369.25;;;17.16;78.40
80798;BME280;70202;52.238;10.680;2023-08-06T00:13:49;99398.16;;;17.33;78.55
80798;BME280;70202;52.238;10.680;2023-08-06T00:14:50;99382.38;;;17.23;78.31
80798;BME280;70202;52.238;10.680;2023-08-06T00:15:51;99382.88;;;17.29;78.00
80798;BME280;70202;52.238;10.680;2023-08-06T00:16:51;99387.28;;;17.31;78.37
80798;BME280;70202;52.238;10.680;2023-08-06T00:17:51;99382.88;;;17.29;78.44
80798;BME280;70202;52.238;10.680;2023-08-06T00:18:52;99380.91;;;17.31;78.30
80798;BME280;70202;52.238;10.680;2023-08-06T00:19:52;99366.66;;;17.26;78.47
80798;BME280;70202;52.238;10.680;2023-08-06T00:20:53;99371.88;;;17.29;78.73
80798;BME280;70202;52.238;10.680;2023-08-06T00:21:53;99256.31;;;16.61;78.57
80798;BME280;70202;52.238;10.680;2023-08-06T00:22:53;99363.25;;;17.22;78.62
80798;BME280;70202;52.238;10.680;2023-08-06T00:23:54;99340.22;;;17.12;78.71
80798;BME280;70202;52.238;10.680;2023-08-06T00:24:54;99346.50;;;17.14;78.47
80798;BME280;70202;52.238;10.680;2023-08-06T00:25:57;99352.50;;;17.19;78.72
80798;BME280;70202;52.238;10.680;2023-08-06T00:26:58;99349.13;;;17.15;78.70
80798;BME280;70202;52.238;10.680;2023-08-06T00:27:58;99338.38;;;17.12;78.79
80798;BME280;70202;52.238;10.680;2023-08-06T00:28:58;99345.25;;;17.18;78.59
80798;BME280;70202;52.238;10.680;2023-08-06T00:29:59;99342.50;;;17.18;78.68
80798;BME280;70202;52.238;10.680;2023-08-06T00:30:59;99336.22;;;17.16;78.87
80798;BME280;70202;52.238;10.680;2023-08-06T00:32:00;99356.38;;;17.28;78.79
80798;BME280;70202;52.238;10.680;2023-08-06T00:33:00;99351.72;;;17.28;78.87
80798;BME280;70202;52.238;10.680;2023-08-06T00:34:00;99298.59;;;16.94;79.02
80798;BME280;70202;52.238;10.680;2023-08-06T00:35:01;99357.38;;;17.27;79.08
80798;BME280;70202;52.238;10.680;2023-08-06T00:36:01;99350.63;;;17.19;79.03
80798;BME280;70202;52.238;10.680;2023-08-06T00:37:02;99328.97;;;17.15;79.00
80798;BME280;70202;52.238;10.680;2023-08-06T00:38:02;99333.22;;;17.19;79.12
80798;BME280;70202;52.238;10.680;2023-08-06T00:39:03;99344.50;;;17.27;79.24
80798;BME280;70202;52.238;10.680;2023-08-06T00:40:03;99325.84;;;17.19;79.26
80798;BME280;70202;52.238;10.680;2023-08-06T00:41:04;99339.13;;;17.26;79.18
80798;BME280;70202;52.238;10.680;2023-08-06T00:42:04;99319.84;;;17.14;79.10
80798;BME280;70202;52.238;10.680;2023-08-06T00:43:05;99332.84;;;17.23;78.99
80798;BME280;70202;52.238;10.680;2023-08-06T00:44:05;99321.22;;;17.20;79.00
80798;BME280;70202;52.238;10.680;2023-08-06T00:45:06;99313.59;;;17.12;78.92
80798;BME280;70202;52.238;10.680;2023-08-06T00:46:06;99298.59;;;17.05;78.93
80798;BME280;70202;52.238;10.680;2023-08-06T00:47:07;99320.72;;;17.15;78.94
80798;BME280;70202;52.238;10.680;2023-08-06T00:48:08;99292.69;;;16.98;79.20
80798;BME280;70202;52.238;10.680;2023-08-06T00:49:08;99314.59;;;17.11;79.10
80798;BME280;70202;52.238;10.680;2023-08-06T00:50:09;99297.09;;;17.01;79.30
80798;BME280;70202;52.238;10.680;2023-08-06T00:51:10;99304.09;;;17.05;79.25
80798;BME280;70202;52.238;10.680;2023-08-06T00:52:11;99311.97;;;17.10;79.25
80798;BME280;70202;52.238;10.680;2023-08-06T00:53:13;99317.47;;;17.10;79.43
80798;BME280;70202;52.238;10.680;2023-08-06T00:54:14;99309.84;;;17.02;79.50
80798;BME280;70202;52.238;10.680;2023-08-06T00:55:15;99297.09;;;17.01;79.70
80798;BME280;70202;52.238;10.680;2023-08-06T00:56:15;99298.84;;;17.02;79.55
80798;BME280;70202;52.238;10.680;2023-08-06T00:57:16;99294.19;;;17.03;79.73
80798;BME280;70202;52.238;10.680;2023-08-06T00:58:17;99285.59;;;16.96;79.68
80798;BME280;70202;52.238;10.680;2023-08-06T00:59:17;99308.22;;;17.11;79.71
80798;BME280;70202;52.238;10.680;2023-08-06T01:00:19;99303.56;;;17.11;79.77
80798;BME280;70202;52.238;10.680;2023-08-06T01:01:20;99301.34;;;17.05;79.81
80798;BME280;70202;52.238;10.680;2023-08-06T01:02:20;99311.84;;;17.11;79.80
80798;BME280;70202;52.238;10.680;2023-08-06T01:03:20;99307.19;;;17.12;79.55
80798;BME280;70202;52.238;10.680;2023-08-06T01:04:22;99309.09;;;17.11;79.72
80798;BME280;70202;52.238;10.680;2023-08-06T01:05:23;99306.34;;;17.11;79.62
80798;BME280;70202;52.238;10.680;2023-08-06T01:06:43;99307.19;;;17.12;79.79
80798;BME280;70202;52.238;10.680;2023-08-06T01:07:55;99314.72;;;17.10;79.77
80798;BME280;70202;52.238;10.680;2023-08-06T01:09:01;99288.34;;;16.96;79.82
80798;BME280;70202;52.238;10.680;2023-08-06T01:13:16;99290.81;;;16.99;80.02
80798;BME280;70202;52.238;10.680;2023-08-06T01:14:28;99284.81;;;16.94;79.46
80798;BME280;70202;52.238;10.680;2023-08-06T01:15:32;99296.09;;;17.02;79.70
80798;BME280;70202;52.238;10.680;2023-08-06T01:16:35;99274.34;;;16.88;79.83
80798;BME280;70202;52.238;10.680;2023-08-06T01:17:36;99292.22;;;16.93;79.85
80798;BME280;70202;52.238;10.680;2023-08-06T01:18:36;99292.59;;;17.00;79.88
80798;BME280;70202;52.238;10.680;2023-08-06T01:19:39;99299.06;;;16.99;80.07
80798;BME280;70202;52.238;10.680;2023-08-06T01:20:39;99277.09;;;16.88;80.06
80798;BME280;70202;52.238;10.680;2023-08-06T01:21:39;99288.59;;;16.93;80.32
80798;BME280;70202;52.238;10.680;2023-08-06T01:22:40;99286.84;;;16.92;80.20
80798;BME280;70202;52.238;10.680;2023-08-06T01:23:41;99279.84;;;16.88;80.44
80798;BME280;70202;52.238;10.680;2023-08-06T01:24:46;99293.84;;;16.96;80.34
80798;BME280;70202;52.238;10.680;2023-08-06T01:25:56;99295.47;;;16.98;80.12
80798;BME280;70202;52.238;10.680;2023-08-06T01:27:04;99298.34;;;16.97;80.29
80798;BME280;70202;52.238;10.680;2023-08-06T01:28:20;99289.47;;;16.93;80.11
80798;BME280;70202;52.238;10.680;2023-08-06T01:29:28;99297.59;;;16.95;80.00
80798;BME280;70202;52.238;10.680;2023-08-06T01:30:33;99270.09;;;16.84;80.06
80798;BME280;70202;52.238;10.680;2023-08-06T01:31:37;99292.44;;;16.90;80.31
80798;BME280;70202;52.238;10.680;2023-08-06T01:32:42;99292.81;;;16.86;79.91
80798;BME280;70202;52.238;10.680;2023-08-06T01:33:45;99287.47;;;16.84;80.18
80798;BME280;70202;52.238;10.680;2023-08-06T01:34:48;99297.94;;;16.90;80.51
80798;BME280;70202;52.238;10.680;2023-08-06T01:35:50;99284.06;;;16.81;80.23
80798;BME280;70202;52.238;10.680;2023-08-06T01:36:52;99268.97;;;16.75;80.18
80798;BME280;70202;52.238;10.680;2023-08-06T01:37:53;99236.78;;;16.53;80.35
80798;BME280;70202;52.238;10.680;2023-08-06T01:38:53;99305.34;;;16.90;80.48
80798;BME280;70202;52.238;10.680;2023-08-06T01:39:54;99295.34;;;16.89;80.54
80798;BME280;70202;52.238;10.680;2023-08-06T01:40:54;99288.56;;;16.82;80.50
80798;BME280;70202;52.238;10.680;2023-08-06T01:41:55;99272.59;;;16.76;80.58
80798;BME280;70202;52.238;10.680;2023-08-06T01:42:55;99269.31;;;16.70;80.43
80798;BME280;70202;52.238;10.680;2023-08-06T01:43:55;99282.09;;;16.83;80.65
80798;BME280;70202;52.238;10.680;2023-08-06T01:44:56;99274.31;;;16.77;80.75
80798;BME280;70202;52.238;10.680;2023-08-06T01:45:56;99294.47;;;16.88;80.67
80798;BME280;70202;52.238;10.680;2023-08-06T01:46:57;99277.72;;;16.80;80.61
80798;BME280;70202;52.238;10.680;2023-08-06T01:47:57;99273.06;;;16.81;80.80
80798;BME280;70202;52.238;10.680;2023-08-06T01:48:57;99285.34;;;16.88;80.66
80798;BME280;70202;52.238;10.680;2023-08-06T01:49:58;99273.06;;;16.81;80.70
80798;BME280;70202;52.238;10.680;2023-08-06T01:50:58;99277.97;;;16.88;80.83
80798;BME280;70202;52.238;10.680;2023-08-06T01:51:58;99260.47;;;16.78;80.82
80798;BME280;70202;52.238;10.680;2023-08-06T01:52:59;99274.34;;;16.88;80.96
80798;BME280;70202;52.238;10.680;2023-08-06T01:53:59;99259.31;;;16.81;81.06
80798;BME280;70202;52.238;10.680;2023-08-06T01:55:00;99265.47;;;16.84;80.85
80798;BME280;70202;52.238;10.680;2023-08-06T01:56:00;99260.69;;;16.86;80.85
80798;BME280;70202;52.238;10.680;2023-08-06T01:57:00;99244.94;;;16.77;80.85
80798;BME280;70202;52.238;10.680;2023-08-06T01:58:01;99257.06;;;16.86;80.85
80798;BME280;70202;52.238;10.680;2023-08-06T01:59:01;99256.34;;;16.84;80.86
80798;BME280;70202;52.238;10.680;2023-08-06T02:00:01;99238.81;;;16.73;80.86
80798;BME280;70202;52.238;10.680;2023-08-06T02:01:03;99256.47;;;16.82;80.73
80798;BME280;70202;52.238;10.680;2023-08-06T02:02:04;99259.97;;;16.84;80.73
80798;BME280;70202;52.238;10.680;2023-08-06T02:03:04;99251.84;;;16.83;81.00
80798;BME280;70202;52.238;10.680;2023-08-06T02:04:04;99246.81;;;16.77;80.96
80798;BME280;70202;52.238;10.680;2023-08-06T02:05:05;99249.81;;;16.85;80.87
80798;BME280;70202;52.238;10.680;2023-08-06T02:06:06;99244.22;;;16.75;81.09
80798;BME280;70202;52.238;10.680;2023-08-06T02:07:06;99259.09;;;16.84;81.14
80798;BME280;70202;52.238;10.680;2023-08-06T02:08:07;99247.69;;;16.77;81.11
80798;BME280;70202;52.238;10.680;2023-08-06T02:09:07;99229.06;;;16.69;80.91
80798;BME280;70202;52.238;10.680;2023-08-06T02:10:08;99228.81;;;16.72;80.99
80798;BME280;70202;52.238;10.680;2023-08-06T02:11:08;99247.31;;;16.82;81.06
80798;BME280;70202;52.238;10.680;2023-08-06T02:12:08;99242.09;;;16.79;81.01
80798;BME280;70202;52.238;10.680;2023-08-06T02:13:09;99235.28;;;16.71;81.14
80798;BME280;70202;52.238;10.680;2023-08-06T02:14:09;99241.94;;;16.80;81.19
80798;BME280;70202;52.238;10.680;2023-08-06T02:15:10;99238.72;;;16.75;81.14
80798;BME280;70202;52.238;10.680;2023-08-06T02:16:10;99238.19;;;16.70;81.25
80798;BME280;70202;52.238;10.680;2023-08-06T02:17:10;99252.22;;;16.78;81.07
80798;BME280;70202;52.238;10.680;2023-08-06T02:18:11;99250.19;;;16.80;81.26
80798;BME280;70202;52.238;10.680;2023-08-06T02:19:11;99245.31;;;16.72;81.37
80798;BME280;70202;52.238;10.680;2023-08-06T02:20:11;99234.44;;;16.71;81.12
80798;BME280;70202;52.238;10.680;2023-08-06T02:21:12;99251.22;;;16.79;81.07
80798;BME280;70202;52.238;10.680;2023-08-06T02:22:12;99238.91;;;16.72;81.09
80798;BME280;70202;52.238;10.680;2023-08-06T02:23:13;99249.47;;;16.78;81.16
80798;BME280;70202;52.238;10.680;2023-08-06T02:24:13;99248.56;;;16.78;81.34
80798;BME280;70202;52.238;10.680;2023-08-06T02:25:13;99244.06;;;16.77;81.40
80798;BME280;70202;52.238;10.680;2023-08-06T02:26:14;99253.31;;;16.76;81.34
80798;BME280;70202;52.238;10.680;2023-08-06T02:27:14;99248.84;;;16.74;81.20
80798;BME280;70202;52.238;10.680;2023-08-06T02:28:14;99236.41;;;16.69;80.97
80798;BME280;70202;52.238;10.680;2023-08-06T02:29:15;99221.66;;;16.59;81.38
80798;BME280;70202;52.238;10.680;2023-08-06T02:30:15;99235.03;;;16.63;81.53
80798;BME280;70202;52.238;10.680;2023-08-06T02:31:16;99246.44;;;16.70;81.53
80798;BME280;70202;52.238;10.680;2023-08-06T02:32:16;99245.78;;;16.66;81.51
80798;BME280;70202;52.238;10.680;2023-08-06T02:33:16;99240.69;;;16.62;81.35
80798;BME280;70202;52.238;10.680;2023-08-06T02:34:17;99247.41;;;16.69;81.19
80798;BME280;70202;52.238;10.680;2023-08-06T02:35:17;99257.53;;;16.68;81.54
80798;BME280;70202;52.238;10.680;2023-08-06T02:36:17;99227.41;;;16.56;81.48
80798;BME280;70202;52.238;10.680;2023-08-06T02:37:18;99236.53;;;16.56;81.37
80798;BME280;70202;52.238;10.680;2023-08-06T02:38:18;99241.66;;;16.61;81.34
80798;BME280;70202;52.238;10.680;2023-08-06T02:39:19;99232.66;;;16.59;81.38
80798;BME280;70202;52.238;10.680;2023-08-06T02:40:19;99243.91;;;16.67;81.40
80798;BME280;70202;52.238;10.680;2023-08-06T02:41:19;99224.78;;;16.54;81.63
80798;BME280;70202;52.238;10.680;2023-08-06T02:42:20;99221.81;;;16.57;81.63
80798;BME280;70202;52.238;10.680;2023-08-06T02:43:20;99232.16;;;16.65;81.58
80798;BME280;70202;52.238;10.680;2023-08-06T02:44:21;99208.16;;;16.56;81.54
80798;BME280;70202;52.238;10.680;2023-08-06T02:45:21;99219.66;;;16.61;81.73
80798;BME280;70202;52.238;10.680;2023-08-06T02:46:21;99203.66;;;16.55;81.49
80798;BME280;70202;52.238;10.680;2023-08-06T02:47:22;99213.03;;;16.63;81.58
80798;BME280;70202;52.238;10.680;2023-08-06T02:48:22;99186.78;;;16.48;81.83
80798;BME280;70202;52.238;10.680;2023-08-06T02:49:23;99212.31;;;16.61;81.78
80798;BME280;70202;52.238;10.680;2023-08-06T02:50:23;99203.28;;;16.59;81.50
80798;BME280;70202;52.238;10.680;2023-08-06T02:51:23;99189.53;;;16.48;81.71
80798;BME280;70202;52.238;10.680;2023-08-06T02:52:24;99208.06;;;16.57;81.56
80798;BME280;70202;52.238;10.680;2023-08-06T02:53:24;99198.31;;;16.53;81.58
80798;BME280;70202;52.238;10.680;2023-08-06T02:54:25;99211.53;;;16.59;81.75
80798;BME280;70202;52.238;10.680;2023-08-06T02:55:25;99209.81;;;16.58;81.66
80798;BME280;70202;52.238;10.680;2023-08-06T02:56:26;99216.31;;;16.57;81.60
80798;BME280;70202;52.238;10.680;2023-08-06T02:57:26;99213.78;;;16.54;81.54
80798;BME280;70202;52.238;10.680;2023-08-06T02:58:26;99182.56;;;16.44;81.86
80798;BME280;70202;52.238;10.680;2023-08-06T02:59:27;99183.44;;;16.44;81.65
80798;BME280;70202;52.238;10.680;2023-08-06T03:00:27;99191.31;;;16.49;81.85
80798;BME280;70202;52.238;10.680;2023-08-06T03:01:28;99188.66;;;16.47;82.04
80798;BME280;70202;52.238;10.680;2023-08-06T03:02:28;99187.28;;;16.42;81.88
80798;BME280;70202;52.238;10.680;2023-08-06T03:03:31;99186.91;;;16.46;81.83
80798;BME280;70202;52.238;10.680;2023-08-06T03:04:32;99192.81;;;16.53;82.06
80798;BME280;70202;52.238;10.680;2023-08-06T03:05:32;99178.81;;;16.45;81.84
80798;BME280;70202;52.238;10.680;2023-08-06T03:06:33;99176.31;;;16.42;81.78
80798;BME280;70202;52.238;10.680;2023-08-06T03:07:33;99188.56;;;16.49;81.77
80798;BME280;70202;52.238;10.680;2023-08-06T03:08:34;99179.06;;;16.42;81.70
80798;BME280;70202;52.238;10.680;2023-08-06T03:09:34;99180.56;;;16.46;82.11
80798;BME280;70202;52.238;10.680;2023-08-06T03:10:35;99192.19;;;16.49;81.94
80798;BME280;70202;52.238;10.680;2023-08-06T03:11:35;99193.06;;;16.50;82.00
80798;BME280;70202;52.238;10.680;2023-08-06T03:12:35;99178.19;;;16.41;81.79
80798;BME280;70202;52.238;10.680;2023-08-06T03:13:36;99199.41;;;16.50;81.97
80798;BME280;70202;52.238;10.680;2023-08-06T03:14:36;99198.53;;;16.50;81.93
80798;BME280;70202;52.238;10.680;2023-08-06T03:15:36;99198.53;;;16.50;81.67
80798;BME280;70202;52.238;10.680;2023-08-06T03:16:37;99194.06;;;16.49;81.92
80798;BME280;70202;52.238;10.680;2023-08-06T03:17:38;99190.31;;;16.50;82.17
80798;BME280;70202;52.238;10.680;2023-08-06T03:18:39;99187.56;;;16.50;82.10
80798;BME280;70202;52.238;10.680;2023-08-06T03:19:39;99170.94;;;16.40;82.07
80798;BME280;70202;52.238;10.680;2023-08-06T03:20:40;99165.56;;;16.39;81.55
80798;BME280;70202;52.238;10.680;2023-08-06T03:21:40;99181.19;;;16.49;81.89
80798;BME280;70202;52.238;10.680;2023-08-06T03:22:40;99165.56;;;16.39;81.91
80798;BME280;70202;52.238;10.680;2023-08-06T03:23:41;99178.69;;;16.46;81.98
80798;BME280;70202;52.238;10.680;2023-08-06T03:24:41;99180.56;;;16.46;82.20
80798;BME280;70202;52.238;10.680;2023-08-06T03:25:41;99170.81;;;16.42;82.04
80798;BME280;70202;52.238;10.680;2023-08-06T03:26:42;99176.16;;;16.43;81.98
80798;BME280;70202;52.238;10.680;2023-08-06T03:27:42;99175.44;;;16.41;82.13
80798;BME280;70202;52.238;10.680;2023-08-06T03:28:42;99176.31;;;16.42;82.11
80798;BME280;70202;52.238;10.680;2023-08-06T03:29:43;99184.94;;;16.48;82.15
80798;BME280;70202;52.238;10.680;2023-08-06T03:30:44;99184.94;;;16.48;82.35
80798;BME280;70202;52.238;10.680;2023-08-06T03:31:44;99176.53;;;16.39;82.13
80798;BME280;70202;52.238;10.680;2023-08-06T03:32:44;99196.81;;;16.49;82.13
80798;BME280;70202;52.238;10.680;2023-08-06T03:33:45;99180.16;;;16.39;82.22
80798;BME280;70202;52.238;10.680;2023-08-06T03:34:45;99187.56;;;16.50;82.24
80798;BME280;70202;52.238;10.680;2023-08-06T03:35:46;99170.19;;;16.38;82.08
80798;BME280;70202;52.238;10.680;2023-08-06T03:36:46;99192.19;;;16.49;82.08
80798;BME280;70202;52.238;10.680;2023-08-06T03:37:46;99181.06;;;16.40;82.03
80798;BME280;70202;52.238;10.680;2023-08-06T03:38:47;99162.06;;;16.37;82.28
80798;BME280;70202;52.238;10.680;2023-08-06T03:39:48;99198.53;;;16.50;82.08
80798;BME280;70202;52.238;10.680;2023-08-06T03:40:48;99192.28;;;16.48;82.08
80798;BME280;70202;52.238;10.680;2023-08-06T03:41:49;99149.94;;;16.17;82.38
80798;BME280;70202;52.238;10.680;2023-08-06T03:42:49;99198.69;;;16.48;82.04
80798;BME280;70202;52.238;10.680;2023-08-06T03:43:50;99200.66;;;16.46;82.03
80798;BME280;70202;52.238;10.680;2023-08-06T03:44:50;99206.94;;;16.48;82.19
80798;BME280;70202;52.238;10.680;2023-08-06T03:45:50;99193.56;;;16.44;82.10
80798;BME280;70202;52.238;10.680;2023-08-06T03:46:51;99192.66;;;16.43;82.27
80798;BME280;70202;52.238;10.680;2023-08-06T03:47:51;99194.16;;;16.47;82.19
80798;BME280;70202;52.238;10.680;2023-08-06T03:48:51;99194.16;;;16.47;81.98
80798;BME280;70202;52.238;10.680;2023-08-06T03:49:52;99187.78;;;16.47;81.93
80798;BME280;70202;52.238;10.680;2023-08-06T03:50:52;99197.03;;;16.46;81.67
80798;BME280;70202;52.238;10.680;2023-08-06T03:51:53;99174.56;;;16.41;81.92
80798;BME280;70202;52.238;10.680;2023-08-06T03:52:53;99184.31;;;16.45;82.04
80798;BME280;70202;52.238;10.680;2023-08-06T03:53:53;99172.81;;;16.40;81.98
80798;BME280;70202;52.238;10.680;2023-08-06T03:54:54;99169.31;;;16.38;82.03
80798;BME280;70202;52.238;10.680;2023-08-06T03:55:54;99173.69;;;16.40;82.10
80798;BME280;70202;52.238;10.680;2023-08-06T03:56:59;99169.94;;;16.41;81.91
80798;BME280;70202;52.238;10.680;2023-08-06T03:57:59;99148.94;;;16.29;81.90
80798;BME280;70202;52.238;10.680;2023-08-06T03:59:00;99171.81;;;16.41;81.99
80798;BME280;70202;52.238;10.680;2023-08-06T04:00:00;99174.44;;;16.42;81.91
80798;BME280;70202;52.238;10.680;2023-08-06T04:01:02;99154.56;;;16.28;81.75
80798;BME280;70202;52.238;10.680;2023-08-06T04:02:03;99180.94;;;16.41;81.99
80798;BME280;70202;52.238;10.680;2023-08-06T04:03:03;99158.94;;;16.41;82.10
80798;BME280;70202;52.238;10.680;2023-08-06T04:04:04;99156.06;;;16.32;81.83
80798;BME280;70202;52.238;10.680;2023-08-06T04:05:04;99148.81;;;16.31;81.84
80798;BME280;70202;52.238;10.680;2023-08-06T04:06:04;99154.06;;;16.34;82.11
80798;BME280;70202;52.238;10.680;2023-08-06T04:07:05;99149.06;;;16.28;82.10
80798;BME280;70202;52.238;10.680;2023-08-06T04:08:05;99149.19;;;16.26;81.86
80798;BME280;70202;52.238;10.680;2023-08-06T04:09:06;99161.56;;;16.32;81.91
80798;BME280;70202;52.238;10.680;2023-08-06T04:10:06;99176.44;;;16.40;81.83
80798;BME280;70202;52.238;10.680;2023-08-06T04:11:06;99176.53;;;16.39;81.85
80798;BME280;70202;52.238;10.680;2023-08-06T04:12:07;99158.06;;;16.30;82.00
80798;BME280;70202;52.238;10.680;2023-08-06T04:13:08;99164.31;;;16.32;82.05
80798;BME280;70202;52.238;10.680;2023-08-06T04:14:08;99157.41;;;16.26;82.00
80798;BME280;70202;52.238;10.680;2023-08-06T04:15:08;99179.44;;;16.37;81.84
80798;BME280;70202;52.238;10.680;2023-08-06T04:16:09;99176.81;;;16.36;82.47
80798;BME280;70202;52.238;10.680;2023-08-06T04:17:09;99161.56;;;16.32;81.93
80798;BME280;70202;52.238;10.680;2023-08-06T04:18:10;99175.81;;;16.37;82.02
80798;BME280;70202;52.238;10.680;2023-08-06T04:19:10;99153.16;;;16.22;82.22
80798;BME280;70202;52.238;10.680;2023-08-06T04:20:10;99170.41;;;16.35;82.10
80798;BME280;70202;52.238;10.680;2023-08-06T04:21:11;99153.69;;;16.27;82.14
80798;BME280;70202;52.238;10.680;2023-08-06T04:22:11;99164.41;;;16.30;82.06
80798;BME280;70202;52.238;10.680;2023-08-06T04:23:12;99176.69;;;16.37;82.04
80798;BME280;70202;52.238;10.680;2023-08-06T04:24:12;99149.19;;;16.26;82.03
80798;BME280;70202;52.238;10.680;2023-08-06T04:25:13;99162.53;;;16.31;82.14
80798;BME280;70202;52.238;10.680;2023-08-06T04:26:13;99169.06;;;16.30;82.30
80798;BME280;70202;52.238;10.680;2023-08-06T04:27:15;99173.28;;;16.34;82.10
80798;BME280;70202;52.238;10.680;2023-08-06T04:28:15;99158.56;;;16.23;81.91
80798;BME280;70202;52.238;10.680;2023-08-06T04:29:15;99172.19;;;16.36;82.21
80798;BME280;70202;52.238;10.680;2023-08-06T04:30:16;99170.94;;;16.29;82.13
80798;BME280;70202;52.238;10.680;2023-08-06T04:31:16;99155.91;;;16.22;82.20
80798;BME280;70202;52.238;10.680;2023-08-06T04:32:17;99170.41;;;16.35;81.96
80798;BME280;70202;52.238;10.680;2023-08-06T04:33:20;99162.69;;;16.29;82.39
80798;BME280;70202;52.238;10.680;2023-08-06T04:34:20;99179.56;;;16.36;82.32
80798;BME280;70202;52.238;10.680;2023-08-06T04:35:21;99174.94;;;16.36;82.23
80798;BME280;70202;52.238;10.680;2023-08-06T04:36:21;99160.31;;;16.24;82.33
80798;BME280;70202;52.238;10.680;2023-08-06T04:37:21;99170.56;;;16.34;82.32
80798;BME280;70202;52.238;10.680;2023-08-06T04:38:25;99172.19;;;16.36;82.15
80798;BME280;70202;52.238;10.680;2023-08-06T04:39:26;99164.41;;;16.30;82.26
80798;BME280;70202;52.238;10.680;2023-08-06T04:40:26;99181.31;;;16.37;82.19
80798;BME280;70202;52.238;10.680;2023-08-06T04:41:27;99135.31;;;16.16;81.80
80798;BME280;70202;52.238;10.680;2023-08-06T04:42:27;99158.06;;;16.30;81.69
80798;BME280;70202;52.238;10.680;2023-08-06T04:43:28;99171.91;;;16.39;82.11
80798;BME280;70202;52.238;10.680;2023-08-06T04:44:28;99169.31;;;16.38;81.85
80798;BME280;70202;52.238;10.680;2023-08-06T04:45:28;99152.78;;;16.27;82.10
80798;BME280;70202;52.238;10.680;2023-08-06T04:46:29;99172.06;;;16.38;81.97
80798;BME280;70202;52.238;10.680;2023-08-06T04:47:29;99177.41;;;16.39;81.60
80798;BME280;70202;52.238;10.680;2023-08-06T04:48:29;99155.31;;;16.30;81.91
80798;BME280;70202;52.238;10.680;2023-08-06T04:49:30;99162.31;;;16.34;82.07
80798;BME280;70202;52.238;10.680;2023-08-06T04:50:30;99163.56;;;16.41;81.39
80798;BME280;70202;52.238;10.680;2023-08-06T04:51:31;99156.44;;;16.38;82.09
80798;BME280;70202;52.238;10.680;2023-08-06T04:52:31;99153.81;;;16.37;81.86
80798;BME280;70202;52.238;10.680;2023-08-06T04:53:32;99152.94;;;16.36;81.90
80798;BME280;70202;52.238;10.680;2023-08-06T04:54:33;99157.94;;;16.42;81.94
80798;BME280;70202;52.238;10.680;2023-08-06T04:55:33;99123.97;;;16.21;81.65
80798;BME280;70202;52.238;10.680;2023-08-06T04:56:34;99155.44;;;16.39;81.76
80798;BME280;70202;52.238;10.680;2023-08-06T04:57:34;99158.06;;;16.41;81.96
80798;BME280;70202;52.238;10.680;2023-08-06T04:58:35;99150.06;;;16.38;81.94
80798;BME280;70202;52.238;10.680;2023-08-06T04:59:35;99159.69;;;16.43;82.12
80798;BME280;70202;52.238;10.680;2023-08-06T05:00:36;99161.69;;;16.41;82.09
80798;BME280;70202;52.238;10.680;2023-08-06T05:01:36;99172.53;;;16.43;82.14
80798;BME280;70202;52.238;10.680;2023-08-06T05:02:36;99155.56;;;16.38;82.16
80798;BME280;70202;52.238;10.680;2023-08-06T05:03:38;99152.94;;;16.36;82.11
80798;BME280;70202;52.238;10.680;2023-08-06T05:04:39;99142.19;;;16.33;82.37
80798;BME280;70202;52.238;10.680;2023-08-06T05:05:40;99164.06;;;16.46;82.37
80798;BME280;70202;52.238;10.680;2023-08-06T05:06:41;99163.19;;;16.45;82.01
80798;BME280;70202;52.238;10.680;2023-08-06T05:07:42;99163.19;;;16.45;82.03
80798;BME280;70202;52.238;10.680;2023-08-06T05:08:42;99147.06;;;16.41;82.25
80798;BME280;70202;52.238;10.680;2023-08-06T05:09:42;99158.56;;;16.46;82.29
80798;BME280;70202;52.238;10.680;2023-08-06T05:10:44;99154.94;;;16.45;82.17
80798;BME280;70202;52.238;10.680;2023-08-06T05:11:44;99142.59;;;16.40;82.28
80798;BME280;70202;52.238;10.680;2023-08-06T05:12:45;99153.94;;;16.46;82.35
80798;BME280;70202;52.238;10.680;2023-08-06T05:13:45;99129.31;;;16.34;82.18
80798;BME280;70202;52.238;10.680;2023-08-06T05:14:45;99138.81;;;16.41;82.20
80798;BME280;70202;52.238;10.680;2023-08-06T05:15:46;99150.19;;;16.47;82.31
80798;BME280;70202;52.238;10.680;2023-08-06T05:16:46;99137.97;;;16.40;82.46
80798;BME280;70202;52.238;10.680;2023-08-06T05:17:47;99142.44;;;16.41;82.53
80798;BME280;70202;52.238;10.680;2023-08-06T05:18:47;99133.56;;;16.38;82.30
80798;BME280;70202;52.238;10.680;2023-08-06T05:19:47;99137.97;;;16.40;82.74
80798;BME280;70202;52.238;10.680;2023-08-06T05:20:48;99156.31;;;16.51;82.59
80798;BME280;70202;52.238;10.680;2023-08-06T05:21:48;99155.44;;;16.50;82.46